Springfield, Michigan
Current Conditions -  °F | °C
As of 6:53 PM on Sunday 23 Nov 2014 (Local Time) from KBTL Reporting Station
Light Rain Light Rain  
Wind Chill: 11°   Ceiling: 700
Heat Index: 11°   Visibility: 5mi
Dew Point:   Wind: 9mph
Humidity: 89%   Direction: 120°ESE
Pressure: 29.48"   Gusts: NA
Location:  42.2966°N, 85.2371°W
Report Text: KBTL 232353Z 12008KT 5SM -RA BR OVC007 11/09 A2948 RMK AO2 CIG 004V011 SLP985 P0011 60040 T01110094 10117 20106 58040 $
Loading
Personal Weather Stations






























Interactive Weather Map New forecast layout! Learn more

10-Day Weather Forecast

Advertisements
Track Severe Weather on mobile